Time;durP1;ratioP1;P1;durP2;ratioP2;P2;SDS_P1;SDS_P2;PMS_P1;PMS_P2;Temp;Humidity;BMP_temperature;BMP_pressure;BME280_temperature;BME280_humidity;BME280_pressure;Samples;Min_cycle;Max_cycle;Signal;HPM_P1;HPM_P2
2021/05/01 00:00:14;;;;;;;7.32;4.00;;;18.90;37.10;;;;;;5095379;28;20028;-64
2021/05/01 00:02:40;;;;;;;8.20;4.15;;;18.90;37.10;;;;;;5095720;28;20028;-64
2021/05/01 00:05:06;;;;;;;8.40;4.28;;;18.90;37.10;;;;;;5094922;28;20031;-63
2021/05/01 00:07:32;;;;;;;7.55;4.38;;;18.90;37.10;;;;;;5094860;28;20020;-63
2021/05/01 00:09:57;;;;;;;7.20;4.13;;;18.90;37.20;;;;;;5095177;28;20381;-63
2021/05/01 00:12:23;;;;;;;9.80;4.50;;;18.90;37.20;;;;;;5095064;28;20024;-64
2021/05/01 00:14:48;;;;;;;7.25;4.15;;;18.90;37.20;;;;;;5094972;28;20514;-64
2021/05/01 00:17:14;;;;;;;7.97;4.20;;;18.90;37.20;;;;;;5095233;28;20024;-63
2021/05/01 00:19:39;;;;;;;7.82;4.05;;;18.90;37.20;;;;;;5094695;28;20028;-64
2021/05/01 00:22:05;;;;;;;7.28;4.28;;;18.90;37.10;;;;;;5076162;28;20019;-63
2021/05/01 00:24:30;;;;;;;7.22;4.13;;;18.80;37.20;;;;;;5094279;28;20031;-63
2021/05/01 00:26:56;;;;;;;7.40;4.03;;;18.80;37.20;;;;;;5094639;28;20039;-63
2021/05/01 00:29:21;;;;;;;7.20;4.05;;;18.80;37.10;;;;;;5094630;28;20484;-63
2021/05/01 00:31:47;;;;;;;7.88;4.18;;;18.80;37.20;;;;;;5093556;28;20027;-63
2021/05/01 00:34:13;;;;;;;8.32;4.22;;;18.80;37.20;;;;;;5094897;28;20064;-63
2021/05/01 00:36:39;;;;;;;7.32;3.80;;;18.80;37.20;;;;;;5094382;28;20495;-63
2021/05/01 00:39:05;;;;;;;7.05;4.18;;;18.80;37.20;;;;;;5094634;28;20247;-63
2021/05/01 00:41:31;;;;;;;6.22;3.28;;;18.80;37.20;;;;;;5094664;28;20024;-65
2021/05/01 00:43:57;;;;;;;6.20;3.70;;;18.80;37.20;;;;;;5094173;28;20031;-63
2021/05/01 00:46:22;;;;;;;7.30;4.22;;;18.80;37.20;;;;;;5094379;28;20016;-63
2021/05/01 00:48:48;;;;;;;7.57;3.92;;;18.80;37.30;;;;;;5094124;28;20031;-63
2021/05/01 00:51:13;;;;;;;7.68;4.68;;;18.80;37.30;;;;;;5094099;28;20085;-63
2021/05/01 00:53:39;;;;;;;8.18;4.07;;;18.80;37.30;;;;;;5094532;28;20537;-63
2021/05/01 00:56:06;;;;;;;7.38;4.13;;;18.80;37.30;;;;;;5094297;28;20030;-63
2021/05/01 00:58:32;;;;;;;7.40;3.97;;;18.80;37.30;;;;;;5094480;28;20052;-63
2021/05/01 01:03:26;;;;;;;10.05;4.28;;;18.80;37.30;;;;;;5093872;28;20274;-63
2021/05/01 01:05:51;;;;;;;8.07;4.30;;;18.80;37.30;;;;;;5093829;28;20066;-63
2021/05/01 01:08:17;;;;;;;8.02;4.57;;;18.80;37.40;;;;;;5093767;28;20062;-63
2021/05/01 01:10:43;;;;;;;8.43;4.47;;;18.80;37.40;;;;;;5093810;28;20060;-63
2021/05/01 01:13:08;;;;;;;7.10;4.22;;;18.80;37.40;;;;;;5093867;28;20459;-63
2021/05/01 01:15:34;;;;;;;7.50;4.15;;;18.80;37.40;;;;;;5093997;28;20031;-64
2021/05/01 01:18:00;;;;;;;8.90;4.30;;;18.80;37.40;;;;;;5093836;28;20016;-64
2021/05/01 01:20:27;;;;;;;8.05;4.35;;;18.70;37.40;;;;;;5093448;28;20024;-63
2021/05/01 01:22:53;;;;;;;7.35;4.20;;;18.70;37.40;;;;;;5092113;28;20036;-64
2021/05/01 01:25:19;;;;;;;6.70;4.00;;;18.70;37.50;;;;;;5093646;28;20039;-64
2021/05/01 01:27:46;;;;;;;8.57;3.97;;;18.70;37.50;;;;;;5093669;28;20093;-64
2021/05/01 01:30:13;;;;;;;7.15;3.70;;;18.70;37.50;;;;;;5093563;28;20479;-64
2021/05/01 01:32:39;;;;;;;8.60;4.63;;;18.70;37.50;;;;;;5093722;28;20016;-63
2021/05/01 01:35:06;;;;;;;8.48;4.82;;;18.70;37.50;;;;;;5093628;28;20046;-64
2021/05/01 01:37:31;;;;;;;9.65;5.13;;;18.70;37.50;;;;;;5092079;28;20024;-64
2021/05/01 01:39:57;;;;;;;7.20;4.13;;;18.70;37.50;;;;;;5093712;28;20097;-63
2021/05/01 01:42:22;;;;;;;7.88;4.65;;;18.70;37.60;;;;;;5093151;28;20032;-63
2021/05/01 01:44:48;;;;;;;7.15;4.32;;;18.70;37.60;;;;;;5093387;28;20096;-64
2021/05/01 01:47:14;;;;;;;8.15;5.20;;;18.70;37.60;;;;;;5093130;28;20023;-64
2021/05/01 01:49:40;;;;;;;7.57;4.32;;;18.70;37.60;;;;;;5093051;28;20074;-64
2021/05/01 01:52:07;;;;;;;7.35;4.53;;;18.70;37.60;;;;;;5093174;28;20426;-64
2021/05/01 01:54:33;;;;;;;7.28;4.30;;;18.70;37.60;;;;;;5092025;28;20088;-63
2021/05/01 01:57:00;;;;;;;8.52;4.75;;;18.60;37.60;;;;;;5093413;28;20024;-65
2021/05/01 01:59:29;;;;;;;7.78;4.57;;;18.70;37.70;;;;;;5093240;28;20028;-65
2021/05/01 02:01:55;;;;;;;8.43;4.90;;;18.70;37.70;;;;;;5093105;28;20035;-64
2021/05/01 02:04:22;;;;;;;7.03;4.07;;;18.60;37.60;;;;;;5093195;28;20472;-65
2021/05/01 02:06:47;;;;;;;7.38;4.43;;;18.60;37.70;;;;;;5093044;28;20020;-64
2021/05/01 02:09:13;;;;;;;8.00;4.63;;;18.60;37.70;;;;;;5093267;28;20386;-64
2021/05/01 02:11:39;;;;;;;9.98;4.65;;;18.60;37.70;;;;;;5093124;28;20541;-64
2021/05/01 02:14:05;;;;;;;8.65;4.25;;;18.70;37.70;;;;;;5093133;28;20066;-64
2021/05/01 02:16:31;;;;;;;7.68;4.68;;;18.60;37.70;;;;;;5093586;28;20383;-64
2021/05/01 02:18:57;;;;;;;8.30;4.72;;;18.60;37.80;;;;;;5093004;28;20467;-64
2021/05/01 02:21:23;;;;;;;7.82;4.32;;;18.60;37.80;;;;;;5092925;28;20107;-64
2021/05/01 02:23:49;;;;;;;8.50;4.53;;;18.60;37.80;;;;;;5092986;28;20444;-64
2021/05/01 02:26:15;;;;;;;7.32;4.10;;;18.60;37.80;;;;;;5093073;28;20031;-64
2021/05/01 02:28:40;;;;;;;7.88;4.60;;;18.60;37.80;;;;;;5093121;28;20032;-64
2021/05/01 02:31:06;;;;;;;10.07;4.95;;;18.60;37.80;;;;;;5093143;28;20085;-64
2021/05/01 02:33:31;;;;;;;8.48;4.60;;;18.60;37.80;;;;;;5093076;28;20073;-64
2021/05/01 02:35:57;;;;;;;7.38;4.10;;;18.50;37.80;;;;;;5092958;28;20099;-64
2021/05/01 02:38:22;;;;;;;8.23;4.63;;;18.60;37.80;;;;;;5092676;28;20028;-65
2021/05/01 02:40:48;;;;;;;8.48;5.13;;;18.60;37.90;;;;;;5092789;28;20016;-63
2021/05/01 02:43:14;;;;;;;8.25;4.22;;;18.60;37.80;;;;;;5092937;28;20594;-63
2021/05/01 02:45:40;;;;;;;8.55;4.72;;;18.60;37.90;;;;;;5092915;28;20051;-64
2021/05/01 02:48:07;;;;;;;7.93;4.45;;;18.60;37.90;;;;;;5092753;28;20035;-65
2021/05/01 02:50:32;;;;;;;8.05;4.72;;;18.60;37.80;;;;;;5093303;28;20036;-65
2021/05/01 02:52:58;;;;;;;9.23;5.00;;;18.60;37.90;;;;;;5093142;28;20036;-65
2021/05/01 02:55:24;;;;;;;8.25;5.03;;;18.50;37.90;;;;;;5095666;28;20063;-64
2021/05/01 02:57:51;;;;;;;7.25;4.43;;;18.60;37.90;;;;;;5096543;28;20025;-65
2021/05/01 03:00:19;;;;;;;8.35;4.68;;;18.50;37.90;;;;;;5096509;28;20028;-64
2021/05/01 03:02:45;;;;;;;8.13;4.70;;;18.50;37.90;;;;;;5094998;28;20355;-65
2021/05/01 03:05:12;;;;;;;7.30;4.22;;;18.50;37.90;;;;;;5096164;28;20099;-63
2021/05/01 03:07:38;;;;;;;7.82;4.53;;;18.50;37.90;;;;;;5096314;28;20031;-65
2021/05/01 03:10:06;;;;;;;8.90;5.05;;;18.50;37.90;;;;;;5096441;28;20032;-64
2021/05/01 03:12:31;;;;;;;9.45;4.68;;;18.50;37.90;;;;;;5096436;28;20020;-64
2021/05/01 03:14:57;;;;;;;8.75;4.68;;;18.50;38.00;;;;;;5095945;28;20103;-65
2021/05/01 03:17:23;;;;;;;8.50;5.13;;;18.50;37.90;;;;;;5095830;28;20023;-65
2021/05/01 03:19:48;;;;;;;8.27;4.80;;;18.50;37.90;;;;;;5095806;28;20027;-65
2021/05/01 03:22:14;;;;;;;8.30;4.70;;;18.50;38.00;;;;;;5095664;28;20379;-65
2021/05/01 03:24:41;;;;;;;7.63;4.55;;;18.50;37.90;;;;;;5095795;28;20035;-64
2021/05/01 03:27:07;;;;;;;9.15;5.15;;;18.50;38.00;;;;;;5095926;28;20035;-66
2021/05/01 03:29:32;;;;;;;7.63;4.43;;;18.50;37.90;;;;;;5095767;28;20036;-65
2021/05/01 03:31:58;;;;;;;8.73;5.13;;;18.50;38.00;;;;;;5095896;28;20026;-65
2021/05/01 03:34:23;;;;;;;8.20;4.70;;;18.50;38.00;;;;;;5094218;28;20479;-65
2021/05/01 03:36:49;;;;;;;7.75;4.45;;;18.50;38.00;;;;;;5095653;28;20026;-66
2021/05/01 03:39:16;;;;;;;9.43;4.97;;;18.50;38.00;;;;;;5095912;28;20030;-64
2021/05/01 03:41:45;;;;;;;7.97;4.25;;;18.50;38.00;;;;;;5095726;28;20103;-65
2021/05/01 03:44:11;;;;;;;8.10;4.78;;;18.50;38.00;;;;;;5094220;28;20089;-65
2021/05/01 03:46:37;;;;;;;8.10;4.65;;;18.50;38.00;;;;;;5095519;28;20023;-65
2021/05/01 03:49:03;;;;;;;8.98;5.03;;;18.50;38.00;;;;;;5095204;28;20043;-65
2021/05/01 03:51:29;;;;;;;8.93;4.65;;;18.50;38.00;;;;;;5095654;28;20031;-65
2021/05/01 03:53:54;;;;;;;9.18;4.57;;;18.50;38.00;;;;;;5095410;28;20364;-65
2021/05/01 03:56:20;;;;;;;7.53;4.40;;;18.50;38.00;;;;;;5095203;28;20532;-63
2021/05/01 03:58:45;;;;;;;8.68;5.00;;;18.50;38.00;;;;;;5095166;28;20032;-64
2021/05/01 04:01:11;;;;;;;9.20;5.30;;;18.50;38.10;;;;;;5094959;28;20016;-63
2021/05/01 04:03:36;;;;;;;7.88;4.53;;;18.50;38.10;;;;;;5095180;28;20024;-63
2021/05/01 04:06:04;;;;;;;8.23;4.53;;;18.50;38.10;;;;;;5094873;28;20028;-63
2021/05/01 04:08:29;;;;;;;8.35;4.60;;;18.50;38.10;;;;;;5094933;28;20123;-63
2021/05/01 04:10:55;;;;;;;9.48;5.20;;;18.50;38.10;;;;;;5095116;28;20043;-63
2021/05/01 04:13:20;;;;;;;8.85;4.82;;;18.50;38.10;;;;;;5095207;28;20107;-64
2021/05/01 04:15:46;;;;;;;7.78;4.90;;;18.50;38.10;;;;;;5094848;28;20511;-64
2021/05/01 04:18:14;;;;;;;8.70;4.70;;;18.50;38.10;;;;;;5095041;28;20460;-63
2021/05/01 04:20:41;;;;;;;8.45;4.88;;;18.50;38.00;;;;;;5094890;28;20040;-63
2021/05/01 04:23:08;;;;;;;7.03;4.50;;;18.50;38.00;;;;;;5093387;28;20079;-63
2021/05/01 04:25:35;;;;;;;8.50;4.85;;;18.50;38.00;;;;;;5094994;28;20051;-63
2021/05/01 04:28:00;;;;;;;7.40;4.50;;;18.50;38.00;;;;;;5094695;28;20020;-63
2021/05/01 04:30:26;;;;;;;8.27;4.63;;;18.50;38.00;;;;;;5093402;28;20234;-63
2021/05/01 04:32:51;;;;;;;8.85;4.60;;;18.50;38.00;;;;;;5093950;28;20046;-64
2021/05/01 04:35:17;;;;;;;8.27;4.65;;;18.50;38.00;;;;;;5094746;28;20081;-64
2021/05/01 04:37:43;;;;;;;7.63;4.68;;;18.50;38.00;;;;;;5094903;28;20031;-64
2021/05/01 04:40:09;;;;;;;6.88;4.03;;;18.50;38.00;;;;;;5095359;28;20108;-64
2021/05/01 04:42:37;;;;;;;8.15;4.47;;;18.50;38.00;;;;;;5100371;28;20031;-64
2021/05/01 04:45:04;;;;;;;9.38;4.60;;;18.60;38.00;;;;;;5104323;28;20475;-64
2021/05/01 04:47:29;;;;;;;8.10;4.95;;;18.50;38.00;;;;;;5103742;28;20028;-66
2021/05/01 04:49:55;;;;;;;9.38;4.68;;;18.50;37.90;;;;;;5104872;28;20097;-64
2021/05/01 04:52:20;;;;;;;9.00;4.28;;;18.60;38.00;;;;;;5105974;28;20052;-64
2021/05/01 04:54:46;;;;;;;9.52;4.30;;;18.50;38.00;;;;;;5103592;28;20503;-64
2021/05/01 04:57:12;;;;;;;7.78;4.78;;;18.60;38.00;;;;;;5103695;28;20060;-64
2021/05/01 04:59:37;;;;;;;7.93;4.13;;;18.60;38.00;;;;;;5097695;28;20040;-64
2021/05/01 05:02:03;;;;;;;8.45;4.82;;;18.60;38.00;;;;;;5093779;28;20038;-63
2021/05/01 05:04:28;;;;;;;7.45;4.25;;;18.60;38.00;;;;;;5094270;28;20383;-64
2021/05/01 05:06:54;;;;;;;8.52;4.57;;;18.60;38.00;;;;;;5094069;28;20463;-64
2021/05/01 05:09:19;;;;;;;7.63;4.57;;;18.60;38.00;;;;;;5093831;28;20115;-64
2021/05/01 05:11:45;;;;;;;9.55;4.57;;;18.60;38.00;;;;;;5093768;28;20479;-66
2021/05/01 05:14:11;;;;;;;7.03;3.88;;;18.60;38.00;;;;;;5094027;28;20048;-64
2021/05/01 05:16:36;;;;;;;7.93;4.57;;;18.60;38.00;;;;;;5093340;28;20070;-64
2021/05/01 05:19:02;;;;;;;8.57;4.25;;;18.60;38.00;;;;;;5093729;28;20393;-64
2021/05/01 05:21:28;;;;;;;8.02;3.95;;;18.60;38.00;;;;;;5093578;28;20031;-64
2021/05/01 05:23:53;;;;;;;8.45;4.65;;;18.60;38.00;;;;;;5093573;28;20126;-63
2021/05/01 05:26:19;;;;;;;8.50;4.53;;;18.60;38.00;;;;;;5093724;28;20035;-64
2021/05/01 05:28:44;;;;;;;7.22;4.43;;;18.60;37.90;;;;;;5093554;28;20071;-64
2021/05/01 05:31:10;;;;;;;8.18;4.93;;;18.60;38.00;;;;;;5093907;28;20375;-64
2021/05/01 05:33:35;;;;;;;8.15;4.60;;;18.70;38.00;;;;;;5093767;28;20560;-64
2021/05/01 05:36:01;;;;;;;9.85;4.78;;;18.70;38.00;;;;;;5093704;28;20024;-64
2021/05/01 05:38:27;;;;;;;7.47;4.63;;;18.70;38.00;;;;;;5093399;28;20107;-64
2021/05/01 05:40:52;;;;;;;8.68;4.65;;;18.70;38.00;;;;;;5093519;28;20024;-64
2021/05/01 05:43:18;;;;;;;8.68;5.13;;;18.70;38.00;;;;;;5093630;28;20032;-64
2021/05/01 05:45:46;;;;;;;8.63;4.57;;;18.70;38.00;;;;;;5093285;28;20020;-63
2021/05/01 05:48:11;;;;;;;7.18;3.95;;;18.70;38.00;;;;;;5093127;28;20016;-65
2021/05/01 05:50:37;;;;;;;8.45;4.68;;;18.70;38.00;;;;;;5093238;28;20040;-64
2021/05/01 05:53:03;;;;;;;8.30;4.68;;;18.70;38.00;;;;;;5093282;28;20031;-64
2021/05/01 05:55:28;;;;;;;8.15;4.78;;;18.70;38.00;;;;;;5093706;28;20024;-65
2021/05/01 05:57:55;;;;;;;7.75;4.32;;;18.70;38.00;;;;;;5093277;28;20467;-65
2021/05/01 06:00:23;;;;;;;7.80;4.35;;;18.70;38.00;;;;;;5092090;28;20361;-65
2021/05/01 06:02:51;;;;;;;8.27;4.50;;;18.70;38.00;;;;;;5093447;28;20051;-64
2021/05/01 06:05:27;;;;;;;7.75;4.38;;;18.70;38.00;;;;;;5093402;28;20034;-64
2021/05/01 06:07:57;;;;;;;7.45;4.53;;;18.80;38.00;;;;;;5093457;28;20107;-64
2021/05/01 06:10:24;;;;;;;8.38;4.70;;;18.70;38.00;;;;;;5093367;28;20036;-64
2021/05/01 06:12:51;;;;;;;6.68;3.92;;;18.70;37.90;;;;;;5093375;28;20030;-65
2021/05/01 06:15:17;;;;;;;7.03;4.28;;;18.70;38.00;;;;;;5093154;28;20040;-64
2021/05/01 06:17:44;;;;;;;7.50;4.68;;;18.70;38.00;;;;;;5091974;28;20115;-64
2021/05/01 06:20:11;;;;;;;7.78;4.35;;;18.80;38.00;;;;;;5093479;28;20055;-64
2021/05/01 06:22:37;;;;;;;7.00;3.72;;;18.80;38.00;;;;;;5092850;28;20518;-64
2021/05/01 06:25:06;;;;;;;7.93;4.40;;;18.80;37.90;;;;;;5093520;28;20021;-64
2021/05/01 06:27:33;;;;;;;8.05;4.28;;;18.80;38.00;;;;;;5093227;28;20024;-64
2021/05/01 06:30:00;;;;;;;7.50;4.18;;;18.80;38.00;;;;;;5096526;28;20032;-64
2021/05/01 06:32:25;;;;;;;8.15;4.13;;;18.80;37.90;;;;;;5097132;28;20095;-64
2021/05/01 06:34:56;;;;;;;8.13;4.05;;;18.80;37.90;;;;;;5096794;28;20496;-65
2021/05/01 06:37:22;;;;;;;7.43;3.88;;;18.80;37.80;;;;;;5097000;28;20140;-64
2021/05/01 06:39:50;;;;;;;7.40;4.45;;;18.80;37.80;;;;;;5096585;28;20096;-64
2021/05/01 06:42:38;;;;;;;6.82;3.90;;;18.80;37.80;;;;;;5096876;28;20369;-64
2021/05/01 06:45:07;;;;;;;9.52;4.05;;;18.90;37.90;;;;;;5096735;28;20020;-64
2021/05/01 06:47:37;;;;;;;6.95;4.07;;;18.90;37.80;;;;;;5096469;28;20105;-64
2021/05/01 06:50:09;;;;;;;7.60;3.55;;;18.90;37.80;;;;;;5096641;28;20166;-64
2021/05/01 06:52:46;;;;;;;7.07;3.80;;;18.90;37.80;;;;;;5096578;28;20439;-64
2021/05/01 06:55:15;;;;;;;9.05;3.60;;;18.90;37.80;;;;;;5096380;28;20020;-64
2021/05/01 06:57:46;;;;;;;7.03;4.10;;;19.00;37.70;;;;;;5096711;28;20027;-64
2021/05/01 07:00:13;;;;;;;7.40;4.40;;;19.00;37.70;;;;;;5096518;28;20021;-64
2021/05/01 07:02:44;;;;;;;8.35;3.63;;;18.90;37.70;;;;;;5096398;28;20020;-64
2021/05/01 07:05:18;;;;;;;6.50;3.85;;;18.90;37.70;;;;;;5096311;28;20020;-64
2021/05/01 07:07:44;;;;;;;;;;;18.90;37.70;;;;;;5097138;28;20055;-64
2021/05/01 07:10:10;;;;;;;8.15;3.60;;;19.00;37.60;;;;;;5096106;28;19958;-64
2021/05/01 07:12:37;;;;;;;7.03;3.70;;;18.90;37.70;;;;;;5096243;28;20076;-64
2021/05/01 07:15:08;;;;;;;7.97;4.13;;;18.90;37.70;;;;;;5095864;28;20056;-64
2021/05/01 07:17:35;;;;;;;7.32;3.75;;;18.90;37.80;;;;;;5096464;28;20035;-64
2021/05/01 07:20:03;;;;;;;7.03;3.72;;;18.90;37.70;;;;;;5094916;28;20430;-64
2021/05/01 07:22:29;;;;;;;6.15;3.63;;;19.00;37.70;;;;;;5094703;28;20134;-64
2021/05/01 07:24:55;;;;;;;7.68;3.92;;;19.00;37.60;;;;;;5096104;28;20118;-64
2021/05/01 07:27:30;;;;;;;7.78;4.25;;;19.00;37.60;;;;;;5095981;28;20032;-64
2021/05/01 07:30:00;;;;;;;7.10;3.97;;;19.00;37.60;;;;;;5095950;28;20040;-64
2021/05/01 07:32:30;;;;;;;7.22;3.55;;;19.00;37.50;;;;;;5095853;28;20024;-64
2021/05/01 07:34:57;;;;;;;7.32;4.35;;;19.00;37.60;;;;;;5095976;28;20028;-64
2021/05/01 07:37:26;;;;;;;7.22;3.95;;;19.00;37.50;;;;;;5095868;28;20471;-64
2021/05/01 07:39:52;;;;;;;6.25;3.80;;;19.00;37.50;;;;;;5095245;28;20020;-64
2021/05/01 07:42:21;;;;;;;6.68;3.65;;;19.00;37.60;;;;;;5095356;28;20028;-64
2021/05/01 07:44:47;;;;;;;7.07;3.97;;;19.00;37.50;;;;;;5095740;28;20031;-64
2021/05/01 07:47:15;;;;;;;6.55;3.78;;;19.00;37.50;;;;;;5096035;28;20036;-64
2021/05/01 07:49:41;;;;;;;7.90;3.65;;;19.00;37.50;;;;;;5095311;28;20040;-64
2021/05/01 07:52:07;;;;;;;6.57;3.83;;;19.00;37.50;;;;;;5095360;28;20070;-64
2021/05/01 07:54:39;;;;;;;6.93;4.18;;;19.00;37.50;;;;;;5095361;28;20020;-63
2021/05/01 07:57:05;;;;;;;7.07;3.55;;;19.00;37.50;;;;;;5095599;28;20131;-64
2021/05/01 07:59:30;;;;;;;6.78;3.38;;;19.00;37.50;;;;;;5095377;28;20055;-64
2021/05/01 08:01:56;;;;;;;6.45;3.58;;;19.00;37.50;;;;;;5095146;28;20591;-63
2021/05/01 08:04:22;;;;;;;7.07;3.90;;;19.10;37.50;;;;;;5095253;28;20085;-64
2021/05/01 08:06:47;;;;;;;8.15;3.30;;;19.10;37.40;;;;;;5095615;28;20032;-64
2021/05/01 08:09:13;;;;;;;7.55;3.78;;;19.20;37.30;;;;;;5095192;28;20449;-63
2021/05/01 08:11:38;;;;;;;6.40;3.60;;;19.20;37.30;;;;;;5095174;28;20027;-64
2021/05/01 08:14:04;;;;;;;7.22;3.75;;;19.20;37.20;;;;;;5095153;28;20036;-64
2021/05/01 08:16:29;;;;;;;6.63;3.75;;;19.30;37.20;;;;;;5095028;28;20022;-64
2021/05/01 08:18:56;;;;;;;6.03;3.22;;;19.20;37.20;;;;;;5094067;28;20101;-63
2021/05/01 08:21:22;;;;;;;6.68;3.40;;;19.30;37.20;;;;;;5096377;28;20035;-64
2021/05/01 08:23:48;;;;;;;6.80;3.38;;;19.30;37.20;;;;;;5100098;28;20040;-64
2021/05/01 08:26:14;;;;;;;5.90;3.35;;;19.30;37.20;;;;;;5095484;28;20541;-64
2021/05/01 08:28:39;;;;;;;8.75;3.30;;;19.30;37.20;;;;;;5098749;28;20418;-64
2021/05/01 08:31:05;;;;;;;7.25;3.55;;;19.30;37.10;;;;;;5095573;28;20032;-63
2021/05/01 08:33:31;;;;;;;7.15;3.58;;;19.30;37.10;;;;;;5094998;28;20166;-63
2021/05/01 08:35:57;;;;;;;6.05;3.25;;;19.30;37.10;;;;;;5094879;28;20475;-64
2021/05/01 08:38:24;;;;;;;6.80;3.58;;;19.30;37.10;;;;;;5094653;28;20035;-64
2021/05/01 08:40:50;;;;;;;8.07;3.40;;;19.40;37.10;;;;;;5094584;28;20032;-63
2021/05/01 08:43:16;;;;;;;5.57;3.13;;;19.40;37.00;;;;;;5093370;28;20043;-64
2021/05/01 08:45:45;;;;;;;6.82;3.25;;;19.40;37.00;;;;;;5094575;28;20036;-64
2021/05/01 08:48:11;;;;;;;7.07;3.40;;;19.40;37.00;;;;;;5094752;28;20101;-63
2021/05/01 08:50:41;;;;;;;6.97;3.42;;;19.40;37.00;;;;;;5095642;28;20040;-63
2021/05/01 08:53:07;;;;;;;9.70;3.33;;;19.40;37.00;;;;;;5094074;28;20047;-65
2021/05/01 08:55:35;;;;;;;6.72;3.22;;;19.40;37.00;;;;;;5094038;28;20031;-63
2021/05/01 08:58:03;;;;;;;6.53;3.25;;;19.40;37.10;;;;;;5094011;28;20418;-64
2021/05/01 09:00:29;;;;;;;7.05;3.45;;;19.30;37.10;;;;;;5094434;28;20024;-64
2021/05/01 09:02:55;;;;;;;5.25;2.83;;;19.40;37.10;;;;;;5094116;28;20020;-64
2021/05/01 09:05:25;;;;;;;6.70;3.63;;;19.40;37.10;;;;;;5094005;28;20020;-64
2021/05/01 09:07:51;;;;;;;6.72;3.10;;;19.30;37.10;;;;;;5093936;28;20024;-64
2021/05/01 09:10:18;;;;;;;5.55;2.88;;;19.30;37.10;;;;;;5094268;28;20047;-64
2021/05/01 09:12:48;;;;;;;5.75;3.03;;;19.40;37.10;;;;;;5094341;28;20452;-64
2021/05/01 09:15:27;;;;;;;7.38;3.33;;;19.40;37.00;;;;;;5094730;28;20028;-64
2021/05/01 09:18:04;;;;;;;7.32;3.10;;;19.50;37.00;;;;;;5093940;28;20438;-64
2021/05/01 09:20:31;;;;;;;8.25;3.72;;;19.50;36.90;;;;;;5093745;28;20028;-66
2021/05/01 09:23:07;;;;;;;5.85;3.03;;;19.50;36.90;;;;;;5093634;28;20123;-65
2021/05/01 09:25:46;;;;;;;5.80;2.88;;;19.50;36.90;;;;;;5093778;28;20024;-65
2021/05/01 09:28:16;;;;;;;5.53;2.80;;;19.50;37.00;;;;;;5093898;28;20468;-63
2021/05/01 09:31:01;;;;;;;5.85;3.45;;;19.40;37.00;;;;;;5093726;28;20028;-63
2021/05/01 09:33:35;;;;;;;7.82;3.70;;;19.50;37.00;;;;;;5093874;28;20024;-63
2021/05/01 09:36:06;;;;;;;6.30;3.00;;;19.40;37.00;;;;;;5093584;28;20024;-64
2021/05/01 09:38:38;;;;;;;5.47;2.78;;;19.40;37.00;;;;;;5092986;28;20097;-65
2021/05/01 09:41:17;;;;;;;6.47;3.33;;;19.40;37.00;;;;;;5092747;28;20571;-64
2021/05/01 09:44:03;;;;;;;5.93;3.00;;;19.50;37.00;;;;;;5092942;28;20034;-64
2021/05/01 09:46:31;;;;;;;5.80;3.05;;;19.50;36.90;;;;;;5092851;28;20488;-64
2021/05/01 09:49:10;;;;;;;5.75;2.92;;;19.50;36.90;;;;;;5092765;28;20560;-63
2021/05/01 09:52:09;;;;;;;5.75;2.85;;;19.50;36.80;;;;;;5092765;28;20021;-63
2021/05/01 09:54:45;;;;;;;7.28;3.17;;;19.50;36.80;;;;;;5080446;28;20028;-64
2021/05/01 09:57:13;;;;;;;5.50;2.78;;;19.50;36.90;;;;;;5092836;28;20099;-64
2021/05/01 09:59:47;;;;;;;5.40;2.83;;;19.50;36.80;;;;;;5092987;28;20032;-64
2021/05/01 10:02:17;;;;;;;7.50;3.10;;;19.50;36.70;;;;;;5092800;28;20555;-65
2021/05/01 10:05:05;;;;;;;5.28;2.70;;;19.50;36.70;;;;;;5096099;28;20336;-64
2021/05/01 10:07:32;;;;;;;7.45;2.78;;;19.50;36.60;;;;;;5097059;28;20052;-64
2021/05/01 10:09:59;;;;;;;7.97;2.75;;;19.60;36.60;;;;;;5096550;28;20032;-64
2021/05/01 10:12:36;;;;;;;5.20;2.97;;;19.60;36.60;;;;;;5096703;28;20495;-64
2021/05/01 10:15:12;;;;;;;5.43;2.70;;;19.60;36.60;;;;;;5096678;28;20095;-64
2021/05/01 10:17:38;;;;;;;7.13;3.30;;;19.70;36.50;;;;;;5096624;28;20027;-64
2021/05/01 10:20:05;;;;;;;5.15;2.50;;;19.60;36.50;;;;;;5096534;28;20036;-64
2021/05/01 10:22:41;;;;;;;4.68;2.40;;;19.60;36.50;;;;;;5096470;28;20089;-64
2021/05/01 10:25:11;;;;;;;7.03;2.97;;;19.60;36.50;;;;;;5095257;28;20035;-65
2021/05/01 10:27:55;;;;;;;5.57;2.70;;;19.60;36.60;;;;;;5096687;28;20111;-65
2021/05/01 10:30:32;;;;;;;5.60;2.80;;;19.50;36.60;;;;;;5096261;28;20031;-64
2021/05/01 10:35:39;;;;;;;5.43;2.40;;;19.70;36.40;;;;;;5096843;28;20036;-64
2021/05/01 10:38:07;;;;;;;5.70;2.78;;;19.70;36.30;;;;;;5097077;28;20016;-64
2021/05/01 10:40:45;;;;;;;6.15;2.67;;;19.80;36.30;;;;;;5096966;28;20422;-64
2021/05/01 10:43:14;;;;;;;5.70;2.75;;;19.70;36.40;;;;;;5096425;28;20125;-64
2021/05/01 10:45:46;;;;;;;5.85;2.75;;;19.80;36.30;;;;;;5096748;28;20020;-64
2021/05/01 10:48:12;;;;;;;5.68;3.03;;;19.80;36.30;;;;;;5096959;28;20499;-64
2021/05/01 10:50:38;;;;;;;4.93;2.65;;;19.80;36.30;;;;;;5096927;28;20040;-64
2021/05/01 10:53:06;;;;;;;5.72;2.58;;;19.80;36.10;;;;;;5096751;28;20357;-64
2021/05/01 10:55:45;;;;;;;6.28;2.78;;;19.80;36.10;;;;;;5095265;28;20054;-64
2021/05/01 10:58:11;;;;;;;5.20;2.85;;;19.90;36.00;;;;;;5096509;28;20050;-64
2021/05/01 11:00:44;;;;;;;6.20;2.85;;;19.90;36.00;;;;;;5096590;28;20099;-64
2021/05/01 11:03:13;;;;;;;7.67;2.63;;;19.90;36.00;;;;;;5096588;28;20025;-64
2021/05/01 11:05:42;;;;;;;6.05;2.83;;;19.80;36.10;;;;;;5096299;28;20023;-63
2021/05/01 11:08:28;;;;;;;4.90;2.60;;;19.90;36.10;;;;;;5096291;28;20028;-64
2021/05/01 11:10:54;;;;;;;4.07;2.33;;;19.90;36.00;;;;;;5096017;28;20456;-63
2021/05/01 11:13:25;;;;;;;5.20;2.63;;;19.90;36.00;;;;;;5096426;28;20452;-64
2021/05/01 11:15:54;;;;;;;4.88;2.38;;;20.00;35.90;;;;;;5095487;28;20028;-63
2021/05/01 11:18:20;;;;;;;4.82;2.75;;;20.00;35.80;;;;;;5096322;28;20020;-64
2021/05/01 11:20:48;;;;;;;4.47;2.53;;;20.00;35.80;;;;;;5096736;28;20032;-64
2021/05/01 11:23:15;;;;;;;5.95;2.47;;;20.00;35.80;;;;;;5101981;28;20058;-66
2021/05/01 11:25:42;;;;;;;4.45;2.35;;;20.10;35.70;;;;;;5106557;28;20020;-65
2021/05/01 11:28:12;;;;;;;4.97;2.65;;;20.10;35.70;;;;;;5106804;28;20111;-66
2021/05/01 11:30:38;;;;;;;4.70;2.20;;;20.10;35.60;;;;;;5106162;28;20035;-65
2021/05/01 11:33:05;;;;;;;5.38;2.75;;;20.20;35.50;;;;;;5107924;28;20035;-64
2021/05/01 11:35:31;;;;;;;5.68;2.80;;;20.20;35.50;;;;;;5104791;28;20024;-64
2021/05/01 11:37:59;;;;;;;5.07;2.65;;;20.30;35.40;;;;;;5104668;28;20024;-64
2021/05/01 11:40:29;;;;;;;4.53;2.30;;;20.20;35.50;;;;;;5102961;28;20107;-64
2021/05/01 11:42:56;;;;;;;5.75;2.25;;;20.10;35.60;;;;;;5095540;28;20024;-64
2021/05/01 11:45:27;;;;;;;5.38;2.83;;;20.20;35.50;;;;;;5097005;28;20020;-64
2021/05/01 11:48:01;;;;;;;4.85;2.58;;;20.30;35.40;;;;;;5095864;28;20111;-63
2021/05/01 11:50:28;;;;;;;4.28;2.20;;;20.30;35.40;;;;;;5095678;28;20088;-64
2021/05/01 11:53:20;;;;;;;6.68;2.47;;;20.40;35.30;;;;;;5095384;28;20039;-63
2021/05/01 11:55:54;;;;;;;4.45;2.55;;;20.40;35.30;;;;;;5095424;28;20023;-64
2021/05/01 11:58:34;;;;;;;4.35;2.40;;;20.50;35.20;;;;;;5095542;28;20452;-64
2021/05/01 12:01:20;;;;;;;5.25;2.47;;;20.50;35.10;;;;;;5095803;28;20032;-64
2021/05/01 12:04:02;;;;;;;4.70;2.45;;;20.50;35.00;;;;;;5095223;28;20361;-64
2021/05/01 12:06:38;;;;;;;5.07;2.10;;;20.60;35.00;;;;;;5093884;28;20483;-65
2021/05/01 12:09:12;;;;;;;5.35;2.63;;;20.60;34.90;;;;;;5095123;28;20036;-64
2021/05/01 12:11:38;;;;;;;4.78;2.58;;;20.70;35.00;;;;;;5095213;28;20020;-64
2021/05/01 12:14:11;;;;;;;4.38;2.10;;;20.60;35.00;;;;;;5095004;28;20039;-64
2021/05/01 12:16:37;;;;;;;5.78;2.35;;;20.70;34.80;;;;;;5095367;28;20012;-64
2021/05/01 12:19:03;;;;;;;4.80;2.15;;;20.80;34.70;;;;;;5095035;28;20024;-64
2021/05/01 12:21:31;;;;;;;4.20;2.17;;;20.80;34.80;;;;;;5094953;28;20035;-64
2021/05/01 12:23:59;;;;;;;4.65;2.35;;;20.80;34.70;;;;;;5094524;28;20044;-64
2021/05/01 12:26:35;;;;;;;5.68;2.15;;;20.90;34.60;;;;;;5094418;28;20117;-64
2021/05/01 12:29:19;;;;;;;5.00;2.35;;;20.80;34.80;;;;;;5094622;28;20028;-64
2021/05/01 12:32:05;;;;;;;3.97;2.10;;;20.70;34.90;;;;;;5093488;28;20365;-64
2021/05/01 12:34:46;;;;;;;4.63;2.42;;;20.70;34.90;;;;;;5094776;28;20517;-64
2021/05/01 12:37:13;;;;;;;4.05;2.17;;;20.80;34.80;;;;;;5094425;28;20547;-64
2021/05/01 12:39:40;;;;;;;4.47;2.30;;;20.80;34.70;;;;;;5094691;28;20024;-64
2021/05/01 12:42:32;;;;;;;3.60;1.98;;;20.90;34.70;;;;;;5094894;28;20070;-64
2021/05/01 12:44:58;;;;;;;3.25;2.05;;;20.80;34.90;;;;;;5094582;28;20486;-65
2021/05/01 12:47:36;;;;;;;4.55;2.17;;;20.80;34.70;;;;;;5094228;28;20039;-64
2021/05/01 12:50:25;;;;;;;4.72;2.30;;;20.90;34.70;;;;;;5094273;28;20169;-65
2021/05/01 12:52:52;;;;;;;4.22;2.42;;;20.70;34.80;;;;;;5094078;28;20055;-64
2021/05/01 12:55:19;;;;;;;3.95;2.13;;;20.80;34.80;;;;;;5094107;28;20024;-64
2021/05/01 12:57:46;;;;;;;4.97;2.20;;;20.70;34.80;;;;;;5094322;28;20036;-65